sensor_id;sensor_type;location;lat;lon;timestamp;pressure;altitude;pressure_sealevel;temperature;humidity
51526;BME280;37611;51.794;21.590;2023-01-25T00:00:31;102030.87;;;1.86;100.00
51526;BME280;37611;51.794;21.590;2023-01-25T00:04:52;102022.77;;;1.86;100.00
51526;BME280;37611;51.794;21.590;2023-01-25T00:08:53;102024.48;;;1.86;100.00
51526;BME280;37611;51.794;21.590;2023-01-25T00:12:55;102018.21;;;1.82;100.00
51526;BME280;37611;51.794;21.590;2023-01-25T00:16:56;102025.30;;;1.76;100.00
51526;BME280;37611;51.794;21.590;2023-01-25T00:20:57;102032.77;;;1.74;100.00
51526;BME280;37611;51.794;21.590;2023-01-25T00:24:59;102031.65;;;1.71;100.00
51526;BME280;37611;51.794;21.590;2023-01-25T00:29:00;102024.82;;;1.69;100.00
51526;BME280;37611;51.794;21.590;2023-01-25T00:33:55;102018.27;;;1.69;100.00
51526;BME280;37611;51.794;21.590;2023-01-25T00:37:36;102008.95;;;1.68;100.00
51526;BME280;37611;51.794;21.590;2023-01-25T00:41:39;102001.75;;;1.72;100.00
51526;BME280;37611;51.794;21.590;2023-01-25T00:45:40;101996.38;;;1.73;100.00
51526;BME280;37611;51.794;21.590;2023-01-25T00:49:42;101990.77;;;1.76;100.00
51526;BME280;37611;51.794;21.590;2023-01-25T00:53:44;101987.49;;;1.81;100.00
51526;BME280;37611;51.794;21.590;2023-01-25T00:57:45;101989.33;;;1.83;100.00
51526;BME280;37611;51.794;21.590;2023-01-25T01:01:46;101991.30;;;1.87;100.00
51526;BME280;37611;51.794;21.590;2023-01-25T01:05:47;101983.48;;;1.88;100.00
51526;BME280;37611;51.794;21.590;2023-01-25T01:09:48;101980.29;;;1.85;100.00
51526;BME280;37611;51.794;21.590;2023-01-25T01:13:49;101978.89;;;1.74;100.00
51526;BME280;37611;51.794;21.590;2023-01-25T01:17:50;101975.34;;;1.72;100.00
51526;BME280;37611;51.794;21.590;2023-01-25T01:21:51;101966.23;;;1.76;100.00
51526;BME280;37611;51.794;21.590;2023-01-25T01:25:52;101970.48;;;1.78;100.00
51526;BME280;37611;51.794;21.590;2023-01-25T01:29:53;101971.34;;;1.67;100.00
51526;BME280;37611;51.794;21.590;2023-01-25T01:33:56;101966.96;;;1.63;100.00
51526;BME280;37611;51.794;21.590;2023-01-25T01:37:58;101966.15;;;1.62;100.00
51526;BME280;37611;51.794;21.590;2023-01-25T01:41:59;101967.95;;;1.65;100.00
51526;BME280;37611;51.794;21.590;2023-01-25T01:46:08;101963.46;;;1.59;100.00
51526;BME280;37611;51.794;21.590;2023-01-25T01:50:18;101960.34;;;1.59;100.00
51526;BME280;37611;51.794;21.590;2023-01-25T01:54:47;101958.44;;;1.59;100.00
51526;BME280;37611;51.794;21.590;2023-01-25T01:58:47;101962.46;;;1.63;100.00
51526;BME280;37611;51.794;21.590;2023-01-25T02:02:50;101961.17;;;1.66;100.00
51526;BME280;37611;51.794;21.590;2023-01-25T02:07:02;101958.44;;;1.65;100.00
51526;BME280;37611;51.794;21.590;2023-01-25T02:11:06;101952.20;;;1.60;100.00
51526;BME280;37611;51.794;21.590;2023-01-25T02:15:09;101950.82;;;1.61;100.00
51526;BME280;37611;51.794;21.590;2023-01-25T02:19:18;101949.34;;;1.63;100.00
51526;BME280;37611;51.794;21.590;2023-01-25T02:23:43;101943.02;;;1.62;100.00
51526;BME280;37611;51.794;21.590;2023-01-25T02:28:13;101936.08;;;1.62;100.00
51526;BME280;37611;51.794;21.590;2023-01-25T02:32:13;101933.73;;;1.54;100.00
51526;BME280;37611;51.794;21.590;2023-01-25T02:40:19;101924.77;;;1.48;100.00
51526;BME280;37611;51.794;21.590;2023-01-25T02:44:23;101917.67;;;1.43;100.00
51526;BME280;37611;51.794;21.590;2023-01-25T02:48:25;101916.91;;;1.40;100.00
51526;BME280;37611;51.794;21.590;2023-01-25T02:52:26;101915.58;;;1.38;100.00
51526;BME280;37611;51.794;21.590;2023-01-25T02:56:27;101922.42;;;1.40;100.00
51526;BME280;37611;51.794;21.590;2023-01-25T03:00:28;101920.21;;;1.39;100.00
51526;BME280;37611;51.794;21.590;2023-01-25T03:04:29;101917.83;;;1.32;100.00
51526;BME280;37611;51.794;21.590;2023-01-25T03:08:30;101915.66;;;1.24;100.00
51526;BME280;37611;51.794;21.590;2023-01-25T03:12:31;101909.72;;;1.21;100.00
51526;BME280;37611;51.794;21.590;2023-01-25T03:16:33;101908.16;;;1.20;100.00
51526;BME280;37611;51.794;21.590;2023-01-25T03:20:34;101911.26;;;1.21;100.00
51526;BME280;37611;51.794;21.590;2023-01-25T03:24:35;101915.20;;;1.22;100.00
51526;BME280;37611;51.794;21.590;2023-01-25T03:28:37;101910.84;;;1.24;100.00
51526;BME280;37611;51.794;21.590;2023-01-25T03:32:39;101907.09;;;1.22;100.00
51526;BME280;37611;51.794;21.590;2023-01-25T03:36:40;101898.46;;;1.16;100.00
51526;BME280;37611;51.794;21.590;2023-01-25T03:40:41;101888.64;;;1.10;100.00
51526;BME280;37611;51.794;21.590;2023-01-25T03:44:42;101882.20;;;1.06;100.00
51526;BME280;37611;51.794;21.590;2023-01-25T03:48:43;101872.84;;;0.96;100.00
51526;BME280;37611;51.794;21.590;2023-01-25T03:52:44;101865.01;;;0.92;100.00
51526;BME280;37611;51.794;21.590;2023-01-25T03:56:48;101863.02;;;0.95;100.00
51526;BME280;37611;51.794;21.590;2023-01-25T04:00:49;101857.27;;;0.91;100.00
51526;BME280;37611;51.794;21.590;2023-01-25T04:04:50;101855.73;;;0.85;100.00
51526;BME280;37611;51.794;21.590;2023-01-25T04:08:51;101853.53;;;0.83;100.00
51526;BME280;37611;51.794;21.590;2023-01-25T04:12:52;101851.32;;;0.83;100.00
51526;BME280;37611;51.794;21.590;2023-01-25T04:16:53;101857.98;;;0.84;100.00
51526;BME280;37611;51.794;21.590;2023-01-25T04:20:55;101854.29;;;0.87;100.00
51526;BME280;37611;51.794;21.590;2023-01-25T04:24:56;101850.26;;;0.83;100.00
51526;BME280;37611;51.794;21.590;2023-01-25T04:28:57;101851.71;;;0.81;100.00
51526;BME280;37611;51.794;21.590;2023-01-25T04:33:03;101854.19;;;0.79;100.00
51526;BME280;37611;51.794;21.590;2023-01-25T04:37:04;101862.02;;;0.76;100.00
51526;BME280;37611;51.794;21.590;2023-01-25T04:41:06;101862.30;;;0.72;100.00
51526;BME280;37611;51.794;21.590;2023-01-25T04:45:07;101860.25;;;0.71;100.00
51526;BME280;37611;51.794;21.590;2023-01-25T04:49:08;101871.58;;;0.67;100.00
51526;BME280;37611;51.794;21.590;2023-01-25T04:53:10;101859.30;;;0.63;100.00
51526;BME280;37611;51.794;21.590;2023-01-25T04:57:11;101849.55;;;0.53;100.00
51526;BME280;37611;51.794;21.590;2023-01-25T05:01:13;101849.73;;;0.47;100.00
51526;BME280;37611;51.794;21.590;2023-01-25T05:05:14;101848.30;;;0.43;100.00
51526;BME280;37611;51.794;21.590;2023-01-25T05:09:15;101843.94;;;0.38;100.00
51526;BME280;37611;51.794;21.590;2023-01-25T05:13:17;101845.13;;;0.26;100.00
51526;BME280;37611;51.794;21.590;2023-01-25T05:17:18;101842.55;;;0.26;100.00
51526;BME280;37611;51.794;21.590;2023-01-25T05:21:19;101848.48;;;0.30;100.00
51526;BME280;37611;51.794;21.590;2023-01-25T05:25:38;101847.41;;;0.30;100.00
51526;BME280;37611;51.794;21.590;2023-01-25T05:29:58;101838.84;;;0.30;100.00
51526;BME280;37611;51.794;21.590;2023-01-25T05:33:59;101838.96;;;0.25;100.00
51526;BME280;37611;51.794;21.590;2023-01-25T05:38:00;101838.35;;;0.22;100.00
51526;BME280;37611;51.794;21.590;2023-01-25T05:42:02;101838.04;;;0.20;100.00
51526;BME280;37611;51.794;21.590;2023-01-25T05:46:03;101837.52;;;0.21;100.00
51526;BME280;37611;51.794;21.590;2023-01-25T05:50:05;101833.85;;;0.22;100.00
51526;BME280;37611;51.794;21.590;2023-01-25T05:54:12;101832.47;;;0.23;100.00
51526;BME280;37611;51.794;21.590;2023-01-25T05:58:14;101835.52;;;0.24;100.00
51526;BME280;37611;51.794;21.590;2023-01-25T06:02:15;101834.06;;;0.21;100.00
51526;BME280;37611;51.794;21.590;2023-01-25T06:06:16;101841.48;;;0.20;100.00
51526;BME280;37611;51.794;21.590;2023-01-25T06:10:17;101837.40;;;0.25;100.00
51526;BME280;37611;51.794;21.590;2023-01-25T06:14:18;101832.19;;;0.27;100.00
51526;BME280;37611;51.794;21.590;2023-01-25T06:18:20;101834.16;;;0.24;100.00
51526;BME280;37611;51.794;21.590;2023-01-25T06:22:21;101832.70;;;0.20;100.00
51526;BME280;37611;51.794;21.590;2023-01-25T06:26:22;101831.21;;;0.18;100.00
51526;BME280;37611;51.794;21.590;2023-01-25T06:30:23;101825.08;;;0.16;100.00
51526;BME280;37611;51.794;21.590;2023-01-25T06:34:24;101816.72;;;0.12;100.00
51526;BME280;37611;51.794;21.590;2023-01-25T06:38:25;101816.04;;;0.06;100.00
51526;BME280;37611;51.794;21.590;2023-01-25T06:42:26;101825.16;;;0.06;100.00
51526;BME280;37611;51.794;21.590;2023-01-25T06:46:31;101829.77;;;0.08;100.00
51526;BME280;37611;51.794;21.590;2023-01-25T06:50:32;101827.12;;;0.10;100.00
51526;BME280;37611;51.794;21.590;2023-01-25T06:54:33;101823.73;;;0.15;100.00
51526;BME280;37611;51.794;21.590;2023-01-25T06:58:34;101820.87;;;0.19;100.00
51526;BME280;37611;51.794;21.590;2023-01-25T07:02:35;101822.30;;;0.23;100.00
51526;BME280;37611;51.794;21.590;2023-01-25T07:06:37;101816.46;;;0.22;100.00
51526;BME280;37611;51.794;21.590;2023-01-25T07:10:38;101812.50;;;0.22;100.00
51526;BME280;37611;51.794;21.590;2023-01-25T07:14:39;101806.69;;;0.20;100.00
51526;BME280;37611;51.794;21.590;2023-01-25T07:18:40;101802.70;;;0.21;100.00
51526;BME280;37611;51.794;21.590;2023-01-25T07:22:41;101799.94;;;0.21;100.00
51526;BME280;37611;51.794;21.590;2023-01-25T07:26:43;101790.89;;;0.25;100.00
51526;BME280;37611;51.794;21.590;2023-01-25T07:30:44;101794.00;;;0.24;100.00
51526;BME280;37611;51.794;21.590;2023-01-25T07:34:45;101790.73;;;0.24;100.00
51526;BME280;37611;51.794;21.590;2023-01-25T07:38:46;101780.67;;;0.20;100.00
51526;BME280;37611;51.794;21.590;2023-01-25T07:42:47;101778.21;;;0.16;100.00
51526;BME280;37611;51.794;21.590;2023-01-25T07:46:48;101768.99;;;0.07;100.00
51526;BME280;37611;51.794;21.590;2023-01-25T07:50:49;101765.56;;;-0.00;100.00
51526;BME280;37611;51.794;21.590;2023-01-25T07:55:10;101759.67;;;-0.06;100.00
51526;BME280;37611;51.794;21.590;2023-01-25T07:59:11;101760.08;;;-0.02;100.00
51526;BME280;37611;51.794;21.590;2023-01-25T08:03:13;101763.32;;;0.01;100.00
51526;BME280;37611;51.794;21.590;2023-01-25T08:07:15;101766.31;;;0.04;100.00
51526;BME280;37611;51.794;21.590;2023-01-25T08:15:19;101767.04;;;0.09;100.00
51526;BME280;37611;51.794;21.590;2023-01-25T08:19:21;101765.15;;;0.15;100.00
51526;BME280;37611;51.794;21.590;2023-01-25T08:23:22;101758.75;;;0.22;100.00
51526;BME280;37611;51.794;21.590;2023-01-25T08:27:24;101756.94;;;0.25;100.00
51526;BME280;37611;51.794;21.590;2023-01-25T08:31:28;101761.80;;;0.30;100.00
51526;BME280;37611;51.794;21.590;2023-01-25T08:35:29;101759.88;;;0.31;100.00
51526;BME280;37611;51.794;21.590;2023-01-25T08:39:30;101753.59;;;0.28;100.00
51526;BME280;37611;51.794;21.590;2023-01-25T08:43:31;101751.50;;;0.28;100.00
51526;BME280;37611;51.794;21.590;2023-01-25T08:47:32;101746.91;;;0.33;100.00
51526;BME280;37611;51.794;21.590;2023-01-25T08:51:33;101746.83;;;0.35;100.00
51526;BME280;37611;51.794;21.590;2023-01-25T08:55:34;101746.31;;;0.35;100.00
51526;BME280;37611;51.794;21.590;2023-01-25T08:59:35;101741.17;;;0.34;100.00
51526;BME280;37611;51.794;21.590;2023-01-25T09:03:45;101736.64;;;0.30;100.00
51526;BME280;37611;51.794;21.590;2023-01-25T09:07:46;101734.52;;;0.33;100.00
51526;BME280;37611;51.794;21.590;2023-01-25T09:11:47;101729.95;;;0.35;100.00
51526;BME280;37611;51.794;21.590;2023-01-25T09:15:48;101734.01;;;0.38;100.00
51526;BME280;37611;51.794;21.590;2023-01-25T09:19:49;101726.61;;;0.37;100.00
51526;BME280;37611;51.794;21.590;2023-01-25T09:23:51;101720.10;;;0.36;100.00
51526;BME280;37611;51.794;21.590;2023-01-25T09:27:52;101719.88;;;0.32;100.00
51526;BME280;37611;51.794;21.590;2023-01-25T09:31:53;101718.44;;;0.22;100.00
51526;BME280;37611;51.794;21.590;2023-01-25T09:35:55;101714.64;;;0.17;100.00
51526;BME280;37611;51.794;21.590;2023-01-25T09:39:56;101713.86;;;0.19;100.00
51526;BME280;37611;51.794;21.590;2023-01-25T09:56:32;101692.91;;;0.17;100.00
51526;BME280;37611;51.794;21.590;2023-01-25T10:00:41;101692.11;;;0.14;100.00
51526;BME280;37611;51.794;21.590;2023-01-25T10:04:44;101682.83;;;0.08;100.00
51526;BME280;37611;51.794;21.590;2023-01-25T10:09:04;101673.30;;;0.04;100.00
51526;BME280;37611;51.794;21.590;2023-01-25T10:13:12;101669.05;;;0.08;100.00
51526;BME280;37611;51.794;21.590;2023-01-25T10:17:37;101660.17;;;0.11;100.00
51526;BME280;37611;51.794;21.590;2023-01-25T10:21:40;101657.83;;;0.09;100.00
51526;BME280;37611;51.794;21.590;2023-01-25T10:25:45;101654.84;;;0.11;100.00
51526;BME280;37611;51.794;21.590;2023-01-25T10:29:51;101642.59;;;0.17;100.00
51526;BME280;37611;51.794;21.590;2023-01-25T10:33:56;101640.69;;;0.23;100.00
51526;BME280;37611;51.794;21.590;2023-01-25T10:38:03;101641.12;;;0.32;100.00
51526;BME280;37611;51.794;21.590;2023-01-25T10:42:07;101633.67;;;0.44;100.00
51526;BME280;37611;51.794;21.590;2023-01-25T10:46:22;101629.23;;;0.55;100.00
51526;BME280;37611;51.794;21.590;2023-01-25T10:54:46;101622.30;;;0.50;100.00
51526;BME280;37611;51.794;21.590;2023-01-25T10:58:51;101611.92;;;0.40;100.00
51526;BME280;37611;51.794;21.590;2023-01-25T11:03:05;101605.02;;;0.29;100.00
51526;BME280;37611;51.794;21.590;2023-01-25T11:07:25;101606.77;;;0.23;100.00
51526;BME280;37611;51.794;21.590;2023-01-25T11:15:33;101589.94;;;0.21;100.00
51526;BME280;37611;51.794;21.590;2023-01-25T11:19:37;101586.58;;;0.24;100.00
51526;BME280;37611;51.794;21.590;2023-01-25T11:23:39;101576.80;;;0.22;100.00
51526;BME280;37611;51.794;21.590;2023-01-25T11:27:40;101566.78;;;0.23;100.00
51526;BME280;37611;51.794;21.590;2023-01-25T11:31:50;101562.74;;;0.20;100.00
51526;BME280;37611;51.794;21.590;2023-01-25T11:36:30;101557.00;;;0.22;100.00
51526;BME280;37611;51.794;21.590;2023-01-25T11:40:38;101550.15;;;0.21;100.00
51526;BME280;37611;51.794;21.590;2023-01-25T11:48:59;101534.80;;;0.11;100.00
51526;BME280;37611;51.794;21.590;2023-01-25T12:23:11;101508.86;;;0.36;100.00
51526;BME280;37611;51.794;21.590;2023-01-25T12:31:49;101501.82;;;0.35;100.00
51526;BME280;37611;51.794;21.590;2023-01-25T12:40:04;101487.92;;;0.33;100.00
51526;BME280;37611;51.794;21.590;2023-01-25T12:44:30;101489.50;;;0.37;100.00
51526;BME280;37611;51.794;21.590;2023-01-25T12:48:36;101481.05;;;0.38;100.00
51526;BME280;37611;51.794;21.590;2023-01-25T12:52:48;101473.44;;;0.28;100.00
51526;BME280;37611;51.794;21.590;2023-01-25T12:57:13;101477.97;;;0.21;100.00
51526;BME280;37611;51.794;21.590;2023-01-25T13:01:24;101468.14;;;0.21;100.00
51526;BME280;37611;51.794;21.590;2023-01-25T13:05:50;101471.88;;;0.23;100.00
51526;BME280;37611;51.794;21.590;2023-01-25T13:10:02;101463.92;;;0.24;100.00
51526;BME280;37611;51.794;21.590;2023-01-25T13:26:58;101458.91;;;0.09;100.00
51526;BME280;37611;51.794;21.590;2023-01-25T13:31:00;101461.98;;;0.04;100.00
51526;BME280;37611;51.794;21.590;2023-01-25T13:35:01;101455.61;;;0.04;100.00
51526;BME280;37611;51.794;21.590;2023-01-25T13:43:29;101448.37;;;-0.06;100.00
51526;BME280;37611;51.794;21.590;2023-01-25T13:47:36;101446.13;;;-0.02;100.00
51526;BME280;37611;51.794;21.590;2023-01-25T13:51:39;101438.63;;;-0.03;100.00
51526;BME280;37611;51.794;21.590;2023-01-25T13:55:52;101435.14;;;0.03;100.00
51526;BME280;37611;51.794;21.590;2023-01-25T14:00:04;101431.65;;;0.05;100.00
51526;BME280;37611;51.794;21.590;2023-01-25T14:04:05;101423.25;;;-0.01;100.00
51526;BME280;37611;51.794;21.590;2023-01-25T14:08:09;101416.80;;;-0.10;100.00
51526;BME280;37611;51.794;21.590;2023-01-25T14:16:27;101404.55;;;-0.19;100.00
51526;BME280;37611;51.794;21.590;2023-01-25T14:20:30;101395.77;;;-0.20;100.00
51526;BME280;37611;51.794;21.590;2023-01-25T14:24:32;101390.21;;;-0.18;100.00
51526;BME280;37611;51.794;21.590;2023-01-25T14:28:33;101387.46;;;-0.18;100.00
51526;BME280;37611;51.794;21.590;2023-01-25T14:32:34;101383.93;;;-0.16;100.00
51526;BME280;37611;51.794;21.590;2023-01-25T14:36:36;101381.73;;;-0.12;100.00
51526;BME280;37611;51.794;21.590;2023-01-25T14:40:37;101380.23;;;-0.08;100.00
51526;BME280;37611;51.794;21.590;2023-01-25T14:44:39;101370.81;;;-0.10;100.00
51526;BME280;37611;51.794;21.590;2023-01-25T14:48:41;101365.36;;;-0.11;100.00
51526;BME280;37611;51.794;21.590;2023-01-25T14:52:42;101362.52;;;-0.14;100.00
51526;BME280;37611;51.794;21.590;2023-01-25T14:56:46;101357.86;;;-0.18;100.00
51526;BME280;37611;51.794;21.590;2023-01-25T15:01:06;101354.73;;;-0.17;100.00
51526;BME280;37611;51.794;21.590;2023-01-25T15:10:00;101343.76;;;-0.09;100.00
51526;BME280;37611;51.794;21.590;2023-01-25T15:14:14;101340.20;;;-0.11;100.00
51526;BME280;37611;51.794;21.590;2023-01-25T15:18:48;101334.65;;;-0.09;100.00
51526;BME280;37611;51.794;21.590;2023-01-25T15:23:24;101329.73;;;-0.06;100.00
51526;BME280;37611;51.794;21.590;2023-01-25T15:27:30;101323.61;;;-0.09;100.00
51526;BME280;37611;51.794;21.590;2023-01-25T15:31:32;101327.53;;;-0.13;100.00
51526;BME280;37611;51.794;21.590;2023-01-25T15:35:34;101324.25;;;-0.08;100.00
51526;BME280;37611;51.794;21.590;2023-01-25T15:39:35;101319.80;;;-0.08;100.00
51526;BME280;37611;51.794;21.590;2023-01-25T15:43:40;101319.54;;;-0.11;100.00
51526;BME280;37611;51.794;21.590;2023-01-25T15:47:41;101314.77;;;-0.12;100.00
51526;BME280;37611;51.794;21.590;2023-01-25T15:51:42;101311.27;;;-0.15;100.00
51526;BME280;37611;51.794;21.590;2023-01-25T15:55:50;101307.98;;;-0.15;100.00
51526;BME280;37611;51.794;21.590;2023-01-25T15:59:52;101298.52;;;-0.15;100.00
51526;BME280;37611;51.794;21.590;2023-01-25T16:03:58;101283.67;;;-0.14;100.00
51526;BME280;37611;51.794;21.590;2023-01-25T16:07:59;101282.84;;;-0.15;100.00
51526;BME280;37611;51.794;21.590;2023-01-25T16:12:00;101270.46;;;-0.15;100.00
51526;BME280;37611;51.794;21.590;2023-01-25T16:16:01;101259.77;;;-0.15;100.00
51526;BME280;37611;51.794;21.590;2023-01-25T16:20:03;101247.51;;;-0.18;100.00
51526;BME280;37611;51.794;21.590;2023-01-25T16:24:04;101247.75;;;-0.16;100.00
51526;BME280;37611;51.794;21.590;2023-01-25T16:28:12;101251.02;;;-0.16;100.00
51526;BME280;37611;51.794;21.590;2023-01-25T16:32:13;101247.73;;;-0.15;100.00
51526;BME280;37611;51.794;21.590;2023-01-25T16:36:20;101251.98;;;-0.14;100.00
51526;BME280;37611;51.794;21.590;2023-01-25T16:40:26;101246.73;;;-0.11;100.00
51526;BME280;37611;51.794;21.590;2023-01-25T16:44:29;101244.96;;;-0.10;100.00
51526;BME280;37611;51.794;21.590;2023-01-25T16:48:30;101242.77;;;-0.11;100.00
51526;BME280;37611;51.794;21.590;2023-01-25T16:52:31;101243.81;;;-0.12;100.00
51526;BME280;37611;51.794;21.590;2023-01-25T16:56:32;101234.20;;;-0.12;100.00
51526;BME280;37611;51.794;21.590;2023-01-25T17:00:33;101230.11;;;-0.13;100.00
51526;BME280;37611;51.794;21.590;2023-01-25T17:04:34;101224.19;;;-0.16;100.00
51526;BME280;37611;51.794;21.590;2023-01-25T17:08:35;101213.39;;;-0.17;100.00
51526;BME280;37611;51.794;21.590;2023-01-25T17:12:36;101208.38;;;-0.22;100.00
51526;BME280;37611;51.794;21.590;2023-01-25T17:16:37;101206.64;;;-0.27;100.00
51526;BME280;37611;51.794;21.590;2023-01-25T17:20:38;101205.75;;;-0.30;100.00
51526;BME280;37611;51.794;21.590;2023-01-25T17:24:39;101198.84;;;-0.30;100.00
51526;BME280;37611;51.794;21.590;2023-01-25T17:28:41;101194.70;;;-0.30;100.00
51526;BME280;37611;51.794;21.590;2023-01-25T17:32:44;101193.37;;;-0.26;100.00
51526;BME280;37611;51.794;21.590;2023-01-25T17:36:45;101192.35;;;-0.21;100.00
51526;BME280;37611;51.794;21.590;2023-01-25T17:40:46;101196.91;;;-0.24;100.00
51526;BME280;37611;51.794;21.590;2023-01-25T17:44:47;101194.90;;;-0.25;100.00
51526;BME280;37611;51.794;21.590;2023-01-25T17:48:48;101195.27;;;-0.31;100.00
51526;BME280;37611;51.794;21.590;2023-01-25T17:52:49;101192.68;;;-0.26;100.00
51526;BME280;37611;51.794;21.590;2023-01-25T17:56:51;101192.21;;;-0.22;100.00
51526;BME280;37611;51.794;21.590;2023-01-25T18:00:55;101188.95;;;-0.22;100.00
51526;BME280;37611;51.794;21.590;2023-01-25T18:04:59;101185.71;;;-0.24;100.00
51526;BME280;37611;51.794;21.590;2023-01-25T18:09:05;101186.61;;;-0.25;100.00
51526;BME280;37611;51.794;21.590;2023-01-25T18:13:08;101181.91;;;-0.18;100.00
51526;BME280;37611;51.794;21.590;2023-01-25T18:17:12;101182.40;;;-0.13;100.00
51526;BME280;37611;51.794;21.590;2023-01-25T18:21:20;101181.08;;;-0.18;100.00
51526;BME280;37611;51.794;21.590;2023-01-25T18:25:33;101175.65;;;-0.21;100.00
51526;BME280;37611;51.794;21.590;2023-01-25T18:30:03;101168.22;;;-0.21;100.00
51526;BME280;37611;51.794;21.590;2023-01-25T18:34:06;101167.08;;;-0.22;100.00
51526;BME280;37611;51.794;21.590;2023-01-25T18:38:08;101164.05;;;-0.19;100.00
51526;BME280;37611;51.794;21.590;2023-01-25T18:42:10;101161.43;;;-0.18;100.00
51526;BME280;37611;51.794;21.590;2023-01-25T18:46:13;101167.25;;;-0.17;100.00
51526;BME280;37611;51.794;21.590;2023-01-25T18:50:14;101167.17;;;-0.20;100.00
51526;BME280;37611;51.794;21.590;2023-01-25T18:54:16;101165.85;;;-0.17;100.00
51526;BME280;37611;51.794;21.590;2023-01-25T18:58:20;101160.27;;;-0.19;100.00
51526;BME280;37611;51.794;21.590;2023-01-25T19:02:22;101155.84;;;-0.26;100.00
51526;BME280;37611;51.794;21.590;2023-01-25T19:06:23;101149.14;;;-0.26;100.00
51526;BME280;37611;51.794;21.590;2023-01-25T19:10:24;101146.23;;;-0.22;100.00
51526;BME280;37611;51.794;21.590;2023-01-25T19:14:26;101144.06;;;-0.19;100.00
51526;BME280;37611;51.794;21.590;2023-01-25T19:18:31;101137.34;;;-0.18;100.00
51526;BME280;37611;51.794;21.590;2023-01-25T19:22:33;101139.81;;;-0.15;100.00
51526;BME280;37611;51.794;21.590;2023-01-25T19:26:34;101131.17;;;-0.15;100.00
51526;BME280;37611;51.794;21.590;2023-01-25T19:30:35;101125.90;;;-0.17;100.00
51526;BME280;37611;51.794;21.590;2023-01-25T19:34:37;101128.27;;;-0.20;100.00
51526;BME280;37611;51.794;21.590;2023-01-25T19:38:38;101125.21;;;-0.21;100.00
51526;BME280;37611;51.794;21.590;2023-01-25T19:42:40;101119.17;;;-0.16;100.00
51526;BME280;37611;51.794;21.590;2023-01-25T19:46:41;101113.27;;;-0.15;100.00
51526;BME280;37611;51.794;21.590;2023-01-25T19:50:42;101110.89;;;-0.16;100.00
51526;BME280;37611;51.794;21.590;2023-01-25T19:54:44;101100.27;;;-0.17;100.00
51526;BME280;37611;51.794;21.590;2023-01-25T19:58:46;101098.33;;;-0.20;100.00
51526;BME280;37611;51.794;21.590;2023-01-25T20:02:47;101095.84;;;-0.22;100.00
51526;BME280;37611;51.794;21.590;2023-01-25T20:06:49;101087.42;;;-0.19;100.00
51526;BME280;37611;51.794;21.590;2023-01-25T20:10:50;101084.67;;;-0.19;100.00
51526;BME280;37611;51.794;21.590;2023-01-25T20:14:51;101085.34;;;-0.18;100.00
51526;BME280;37611;51.794;21.590;2023-01-25T20:18:54;101081.14;;;-0.17;100.00
51526;BME280;37611;51.794;21.590;2023-01-25T20:22:56;101078.86;;;-0.15;100.00
51526;BME280;37611;51.794;21.590;2023-01-25T20:26:57;101074.04;;;-0.15;100.00
51526;BME280;37611;51.794;21.590;2023-01-25T20:31:01;101070.58;;;-0.15;100.00
51526;BME280;37611;51.794;21.590;2023-01-25T20:35:05;101071.55;;;-0.13;100.00
51526;BME280;37611;51.794;21.590;2023-01-25T20:39:11;101065.64;;;-0.17;100.00
51526;BME280;37611;51.794;21.590;2023-01-25T20:43:12;101063.73;;;-0.16;100.00
51526;BME280;37611;51.794;21.590;2023-01-25T20:47:13;101059.95;;;-0.16;100.00
51526;BME280;37611;51.794;21.590;2023-01-25T20:51:15;101053.95;;;-0.21;100.00
51526;BME280;37611;51.794;21.590;2023-01-25T20:55:16;101050.41;;;-0.24;100.00
51526;BME280;37611;51.794;21.590;2023-01-25T20:59:17;101049.02;;;-0.23;100.00
51526;BME280;37611;51.794;21.590;2023-01-25T21:03:19;101046.66;;;-0.25;100.00
51526;BME280;37611;51.794;21.590;2023-01-25T21:07:20;101045.86;;;-0.26;100.00
51526;BME280;37611;51.794;21.590;2023-01-25T21:11:21;101038.62;;;-0.26;100.00
51526;BME280;37611;51.794;21.590;2023-01-25T21:15:25;101036.94;;;-0.22;100.00
51526;BME280;37611;51.794;21.590;2023-01-25T21:19:27;101031.30;;;-0.18;100.00
51526;BME280;37611;51.794;21.590;2023-01-25T21:23:28;101027.86;;;-0.19;100.00
51526;BME280;37611;51.794;21.590;2023-01-25T21:27:29;101023.02;;;-0.23;100.00
51526;BME280;37611;51.794;21.590;2023-01-25T21:31:33;101015.64;;;-0.23;100.00
51526;BME280;37611;51.794;21.590;2023-01-25T21:35:35;101012.88;;;-0.28;100.00
51526;BME280;37611;51.794;21.590;2023-01-25T21:39:36;101013.61;;;-0.29;100.00
51526;BME280;37611;51.794;21.590;2023-01-25T21:43:37;101012.46;;;-0.26;100.00
51526;BME280;37611;51.794;21.590;2023-01-25T21:47:58;101008.77;;;-0.24;100.00
51526;BME280;37611;51.794;21.590;2023-01-25T21:51:59;101003.08;;;-0.23;100.00
51526;BME280;37611;51.794;21.590;2023-01-25T21:56:02;101002.45;;;-0.25;100.00
51526;BME280;37611;51.794;21.590;2023-01-25T22:00:04;101004.48;;;-0.24;100.00
51526;BME280;37611;51.794;21.590;2023-01-25T22:04:06;101001.79;;;-0.21;100.00
51526;BME280;37611;51.794;21.590;2023-01-25T22:08:07;101000.45;;;-0.17;100.00
51526;BME280;37611;51.794;21.590;2023-01-25T22:12:08;100999.23;;;-0.13;100.00
51526;BME280;37611;51.794;21.590;2023-01-25T22:16:10;100997.27;;;-0.07;100.00
51526;BME280;37611;51.794;21.590;2023-01-25T22:20:11;100991.85;;;-0.05;100.00
51526;BME280;37611;51.794;21.590;2023-01-25T22:24:13;100991.28;;;0.01;100.00
51526;BME280;37611;51.794;21.590;2023-01-25T22:28:14;100989.58;;;0.01;100.00